createdAt,value
2022-10-21T00:00:57.755Z,93.18
2022-10-21T00:02:06.160Z,92.96
2022-10-21T00:03:08.146Z,93.14
2022-10-21T00:04:10.675Z,93.32
2022-10-21T00:05:12.693Z,93.27
2022-10-21T00:06:15.180Z,93.22
2022-10-21T00:07:16.744Z,93.09
2022-10-21T00:08:21.925Z,93.28
2022-10-21T00:09:23.451Z,93.25
2022-10-21T00:10:26.047Z,93.08
2022-10-21T00:11:27.612Z,93.28
2022-10-21T00:12:30.688Z,93.29
2022-10-21T00:13:34.081Z,93.02
2022-10-21T00:14:37.007Z,93.14
2022-10-21T00:15:38.739Z,93.19
2022-10-21T00:16:41.228Z,93.27
2022-10-21T00:17:43.279Z,93.14
2022-10-21T00:18:47.506Z,93.13
2022-10-21T00:19:49.415Z,93.20
2022-10-21T00:20:52.042Z,93.20
2022-10-21T00:21:53.594Z,93.25
2022-10-21T00:22:56.127Z,93.53
2022-10-21T00:23:59.072Z,93.49
2022-10-21T00:25:01.901Z,93.29
2022-10-21T00:26:03.549Z,93.60
2022-10-21T00:27:06.093Z,93.62
2022-10-21T00:28:07.670Z,93.50
2022-10-21T00:29:10.476Z,93.44
2022-10-21T00:30:13.488Z,93.58
2022-10-21T00:31:17.203Z,93.59
2022-10-21T00:32:18.831Z,93.75
2022-10-21T00:33:22.108Z,93.71
2022-10-21T00:34:27.040Z,93.72
2022-10-21T00:35:34.603Z,94.00
2022-10-21T00:36:36.156Z,93.63
2022-10-21T00:37:38.978Z,93.87
2022-10-21T00:38:41.679Z,93.95
2022-10-21T00:39:45.543Z,93.70
2022-10-21T00:40:47.168Z,93.68
2022-10-21T00:41:49.696Z,93.77
2022-10-21T00:42:51.212Z,93.74
2022-10-21T00:43:58.822Z,93.99
2022-10-21T00:45:17.229Z,93.68
2022-10-21T00:46:19.760Z,93.64
2022-10-21T00:47:22.364Z,93.69
2022-10-21T00:48:33.703Z,93.84
2022-10-21T00:49:39.615Z,93.80
2022-10-21T00:50:49.160Z,93.96
2022-10-21T00:51:54.893Z,93.96
2022-10-21T00:52:59.655Z,93.85
2022-10-21T00:54:02.670Z,93.94
2022-10-21T00:55:08.014Z,93.83
2022-10-21T00:56:16.621Z,93.80
2022-10-21T00:57:21.101Z,93.90
2022-10-21T00:58:26.386Z,94.01
2022-10-21T00:59:32.428Z,94.02
2022-10-21T01:00:33.924Z,93.98
2022-10-21T01:01:36.605Z,93.79
2022-10-21T01:02:38.256Z,93.88
2022-10-21T01:03:40.929Z,93.96
2022-10-21T01:04:43.144Z,93.81
2022-10-21T01:05:46.414Z,93.99
2022-10-21T01:06:48.839Z,93.76
2022-10-21T01:07:52.513Z,94.05
2022-10-21T01:08:56.568Z,94.12
2022-10-21T01:09:59.495Z,93.99
2022-10-21T01:11:03.552Z,94.05
2022-10-21T01:12:16.114Z,93.89
2022-10-21T01:13:28.376Z,93.93
2022-10-21T01:14:50.963Z,94.05
2022-10-21T01:15:59.759Z,94.09
2022-10-21T01:17:26.446Z,93.99
2022-10-21T01:18:44.156Z,94.22
2022-10-21T01:20:18.850Z,93.90
2022-10-21T01:21:31.608Z,94.12
2022-10-21T01:22:52.701Z,94.36
2022-10-21T01:24:37.162Z,94.29
2022-10-21T01:26:05.414Z,94.25
2022-10-21T01:27:27.078Z,94.10
2022-10-21T01:28:40.084Z,94.27
2022-10-21T01:30:12.682Z,94.38
2022-10-21T01:31:21.434Z,94.17
2022-10-21T01:32:33.455Z,94.22
2022-10-21T01:33:41.124Z,94.52
2022-10-21T01:34:51.050Z,94.33
2022-10-21T01:35:57.890Z,94.29
2022-10-21T01:37:11.117Z,94.32
2022-10-21T01:38:19.917Z,94.62
2022-10-21T01:39:29.095Z,94.53
2022-10-21T01:40:37.328Z,94.44
2022-10-21T01:41:43.278Z,94.54
2022-10-21T01:42:52.524Z,94.66
2022-10-21T01:44:03.186Z,94.63
2022-10-21T01:45:12.613Z,94.51
2022-10-21T01:46:23.672Z,94.82
2022-10-21T01:47:31.293Z,94.54
2022-10-21T01:48:38.492Z,94.60
2022-10-21T01:49:47.954Z,94.97
2022-10-21T01:50:53.550Z,94.64
2022-10-21T01:51:56.649Z,94.99
2022-10-21T01:53:02.662Z,94.98
2022-10-21T01:54:08.802Z,94.91
2022-10-21T01:55:15.547Z,94.90
2022-10-21T01:56:18.894Z,95.07
2022-10-21T01:57:24.398Z,95.13
2022-10-21T01:58:31.067Z,94.83
2022-10-21T01:59:33.891Z,95.18
2022-10-21T02:00:38.081Z,95.08
2022-10-21T02:01:44.030Z,95.29
2022-10-21T02:02:49.483Z,95.26
2022-10-21T02:04:01.229Z,95.26
2022-10-21T02:05:11.727Z,95.36
2022-10-21T02:06:14.032Z,95.06
2022-10-21T02:07:16.519Z,95.43
2022-10-21T02:08:18.193Z,95.46
2022-10-21T02:09:20.795Z,95.13
2022-10-21T02:10:25.350Z,95.23
2022-10-21T02:11:29.436Z,95.42
2022-10-21T02:12:33.728Z,95.42
2022-10-21T02:13:42.720Z,95.60
2022-10-21T02:14:48.657Z,95.39
2022-10-21T02:15:53.651Z,95.60
2022-10-21T02:16:59.371Z,95.42
2022-10-21T02:18:05.567Z,95.65
2022-10-21T02:19:15.194Z,95.57
2022-10-21T02:20:18.021Z,95.60
2022-10-21T02:21:24.219Z,95.60
2022-10-21T02:22:28.332Z,95.87
2022-10-21T02:23:39.100Z,95.63
2022-10-21T02:24:46.199Z,95.82
2022-10-21T02:25:51.704Z,95.79
2022-10-21T02:26:53.598Z,95.80
2022-10-21T02:27:56.594Z,95.78
2022-10-21T02:28:59.279Z,95.93
2022-10-21T02:30:02.504Z,95.86
2022-10-21T02:31:17.999Z,96.07
2022-10-21T02:32:29.867Z,96.03
2022-10-21T02:33:43.797Z,96.11
2022-10-21T02:35:01.413Z,96.03
2022-10-21T02:36:12.601Z,95.87
2022-10-21T02:37:22.575Z,96.18
2022-10-21T02:38:28.410Z,95.91
2022-10-21T02:39:36.661Z,95.94
2022-10-21T02:40:42.955Z,95.77
2022-10-21T02:41:46.943Z,95.87
2022-10-21T02:42:52.418Z,95.96
2022-10-21T02:43:59.010Z,96.34
2022-10-21T02:45:02.092Z,95.84
2022-10-21T02:46:08.922Z,95.75
2022-10-21T02:48:20.052Z,95.97
2022-10-21T02:49:22.818Z,95.79
2022-10-21T02:50:25.316Z,95.94
2022-10-21T02:51:26.845Z,95.97
2022-10-21T02:52:29.334Z,95.95
2022-10-21T02:53:31.036Z,95.93
2022-10-21T02:54:33.571Z,95.80
2022-10-21T02:55:35.160Z,95.96
2022-10-21T02:56:37.604Z,95.84
2022-10-21T02:57:39.427Z,96.03
2022-10-21T02:58:42.138Z,95.81
2022-10-21T02:59:43.703Z,95.80
2022-10-21T03:00:46.283Z,95.81
2022-10-21T03:01:47.871Z,95.98
2022-10-21T03:02:50.338Z,95.85
2022-10-21T03:03:53.227Z,95.87
2022-10-21T03:04:55.939Z,95.96
2022-10-21T03:05:58.890Z,95.91
2022-10-21T03:07:01.535Z,96.11
2022-10-21T03:08:03.293Z,96.12
2022-10-21T03:09:06.264Z,95.96
2022-10-21T03:10:08.895Z,95.96
2022-10-21T03:11:11.492Z,95.97
2022-10-21T03:12:13.058Z,95.83
2022-10-21T03:13:15.718Z,95.96
2022-10-21T03:14:18.572Z,95.71
2022-10-21T03:15:20.297Z,95.84
2022-10-21T03:16:22.832Z,95.64
2022-10-21T03:17:25.433Z,95.92
2022-10-21T03:18:28.199Z,95.84
2022-10-21T03:19:31.205Z,95.83
2022-10-21T03:20:33.820Z,95.92
2022-10-21T03:21:35.492Z,96.04
2022-10-21T03:22:38.020Z,95.78
2022-10-21T03:23:39.848Z,95.68
2022-10-21T03:24:42.366Z,95.93
2022-10-21T03:25:43.949Z,95.80
2022-10-21T03:26:46.534Z,95.64
2022-10-21T03:27:49.717Z,95.91
2022-10-21T03:28:52.350Z,95.81
2022-10-21T03:29:53.904Z,95.64
2022-10-21T03:30:56.479Z,95.87
2022-10-21T03:31:58.048Z,95.86
2022-10-21T03:33:00.530Z,95.76
2022-10-21T03:34:02.108Z,95.80
2022-10-21T03:35:07.148Z,95.93
2022-10-21T03:36:09.956Z,95.68
2022-10-21T03:37:11.994Z,95.83
2022-10-21T03:38:14.882Z,95.72
2022-10-21T03:39:16.655Z,95.54
2022-10-21T03:40:19.640Z,95.48
2022-10-21T03:41:21.176Z,95.51
2022-10-21T03:42:23.681Z,95.67
2022-10-21T03:43:25.322Z,95.45
2022-10-21T03:44:27.782Z,95.45
2022-10-21T03:45:29.310Z,95.48
2022-10-21T03:46:31.948Z,95.39
2022-10-21T03:47:33.469Z,95.78
2022-10-21T03:48:35.952Z,95.51
2022-10-21T03:49:37.488Z,95.59
2022-10-21T03:50:41.314Z,95.42
2022-10-21T03:51:42.829Z,95.42
2022-10-21T03:52:45.406Z,95.41
2022-10-21T03:53:46.930Z,95.67
2022-10-21T03:54:49.406Z,95.63
2022-10-21T03:55:56.334Z,95.55
2022-10-21T03:56:59.573Z,95.58
2022-10-21T03:58:01.115Z,95.52
2022-10-21T03:59:03.847Z,95.27
2022-10-21T04:00:06.628Z,95.32
2022-10-21T04:01:13.663Z,95.37
2022-10-21T04:02:15.243Z,95.26
2022-10-21T04:03:17.751Z,95.51
2022-10-21T04:04:20.344Z,95.34
2022-10-21T04:05:21.872Z,95.40
2022-10-21T04:06:25.806Z,95.46
2022-10-21T04:07:27.533Z,95.42
2022-10-21T04:08:30.071Z,95.41
2022-10-21T04:09:31.610Z,95.53
2022-10-21T04:10:34.070Z,95.32
2022-10-21T04:11:35.591Z,95.40
2022-10-21T04:12:38.426Z,95.23
2022-10-21T04:13:40.164Z,95.44
2022-10-21T04:14:42.646Z,95.57
2022-10-21T04:15:45.511Z,95.41
2022-10-21T04:16:50.511Z,95.33
2022-10-21T04:18:02.381Z,95.29
2022-10-21T04:19:04.895Z,95.30
2022-10-21T04:20:07.798Z,95.32
2022-10-21T04:21:10.544Z,95.50
2022-10-21T04:22:13.411Z,95.60
2022-10-21T04:23:15.914Z,95.50
2022-10-21T04:24:17.459Z,95.48
2022-10-21T04:25:20.101Z,95.41
2022-10-21T04:26:21.668Z,95.41
2022-10-21T04:27:24.176Z,95.30
2022-10-21T04:28:25.781Z,95.35
2022-10-21T04:29:28.263Z,95.55
2022-10-21T04:30:29.823Z,95.60
2022-10-21T04:31:32.456Z,95.34
2022-10-21T04:32:43.840Z,95.45
2022-10-21T04:33:46.421Z,95.28
2022-10-21T04:34:47.949Z,95.44
2022-10-21T04:35:50.416Z,95.24
2022-10-21T04:36:52.068Z,95.21
2022-10-21T04:37:55.967Z,95.31
2022-10-21T04:38:57.507Z,95.19
2022-10-21T04:39:59.986Z,95.18
2022-10-21T04:41:03.452Z,95.26
2022-10-21T04:42:06.011Z,95.31
2022-10-21T04:43:07.522Z,95.21
2022-10-21T04:44:10.301Z,95.16
2022-10-21T04:45:11.815Z,95.16
2022-10-21T04:46:16.869Z,95.39
2022-10-21T04:47:18.633Z,95.11
2022-10-21T04:48:21.236Z,95.18
2022-10-21T04:49:22.884Z,95.04
2022-10-21T04:50:25.957Z,95.22
2022-10-21T04:51:27.771Z,95.23
2022-10-21T04:52:30.658Z,95.05
2022-10-21T04:53:33.555Z,95.13
2022-10-21T04:54:36.071Z,94.93
2022-10-21T04:55:39.113Z,95.04
2022-10-21T04:56:41.659Z,95.07
2022-10-21T04:57:43.182Z,94.99
2022-10-21T04:58:45.767Z,94.66
2022-10-21T04:59:47.545Z,94.62
2022-10-21T05:00:50.873Z,94.70
2022-10-21T05:01:53.579Z,94.66
2022-10-21T05:02:55.169Z,94.62
2022-10-21T05:03:57.788Z,94.69
2022-10-21T05:04:59.314Z,94.34
2022-10-21T05:06:01.873Z,94.59
2022-10-21T05:07:03.595Z,94.41
2022-10-21T05:08:11.442Z,94.44
2022-10-21T05:09:15.064Z,94.46
2022-10-21T05:10:17.802Z,94.36
2022-10-21T05:11:19.356Z,94.32
2022-10-21T05:12:22.301Z,94.42
2022-10-21T05:13:23.852Z,94.40
2022-10-21T05:14:26.359Z,94.25
2022-10-21T05:15:27.955Z,94.47
2022-10-21T05:16:30.436Z,94.50
2022-10-21T05:17:31.952Z,94.29
2022-10-21T05:18:34.510Z,94.27
2022-10-21T05:19:35.987Z,94.32
2022-10-21T05:20:41.139Z,93.93
2022-10-21T05:21:42.808Z,94.08
2022-10-21T05:22:45.316Z,93.90
2022-10-21T05:23:46.991Z,93.99
2022-10-21T05:24:50.776Z,94.09
2022-10-21T05:25:52.397Z,94.00
2022-10-21T05:26:54.921Z,93.79
2022-10-21T05:27:56.420Z,93.93
2022-10-21T05:28:59.492Z,93.99
2022-10-21T05:30:01.052Z,93.79
2022-10-21T05:31:03.627Z,93.96
2022-10-21T05:32:05.665Z,94.04
2022-10-21T05:33:08.124Z,93.88
2022-10-21T05:34:10.589Z,93.79
2022-10-21T05:35:12.320Z,93.86
2022-10-21T05:36:14.803Z,93.76
2022-10-21T05:37:16.418Z,93.88
2022-10-21T05:38:19.036Z,93.86
2022-10-21T05:39:21.579Z,93.93
2022-10-21T05:40:24.591Z,93.78
2022-10-21T05:41:27.211Z,94.00
2022-10-21T05:42:28.758Z,93.99
2022-10-21T05:43:31.639Z,94.01
2022-10-21T05:44:33.319Z,93.91
2022-10-21T05:45:35.911Z,93.88
2022-10-21T05:46:38.607Z,94.03
2022-10-21T05:47:40.970Z,93.82
2022-10-21T05:48:43.536Z,94.04
2022-10-21T05:49:45.123Z,94.03
2022-10-21T05:50:48.351Z,93.83
2022-10-21T05:51:49.896Z,93.94
2022-10-21T05:52:53.891Z,93.78
2022-10-21T05:53:58.667Z,93.78
2022-10-21T05:55:00.249Z,93.68
2022-10-21T05:56:05.984Z,93.78
2022-10-21T05:57:07.649Z,93.68
2022-10-21T05:58:10.257Z,93.80
2022-10-21T05:59:12.778Z,93.95
2022-10-21T06:00:14.581Z,93.64
2022-10-21T06:01:18.609Z,93.71
2022-10-21T06:02:20.301Z,93.92
2022-10-21T06:03:23.642Z,93.71
2022-10-21T06:04:26.603Z,93.72
2022-10-21T06:05:31.640Z,93.80
2022-10-21T06:06:34.568Z,93.91
2022-10-21T06:07:36.963Z,93.68
2022-10-21T06:08:40.431Z,93.56
2022-10-21T06:09:42.118Z,93.59
2022-10-21T06:10:45.177Z,93.56
2022-10-21T06:11:49.487Z,93.51
2022-10-21T06:12:52.202Z,93.57
2022-10-21T06:13:53.838Z,93.54
2022-10-21T06:14:56.599Z,93.30
2022-10-21T06:15:58.969Z,93.48
2022-10-21T06:17:01.795Z,93.27
2022-10-21T06:18:04.579Z,93.38
2022-10-21T06:19:06.163Z,93.20
2022-10-21T06:20:09.429Z,92.94
2022-10-21T06:21:11.841Z,93.56
2022-10-21T06:22:15.865Z,93.27
2022-10-21T06:23:17.654Z,92.93
2022-10-21T06:24:20.107Z,92.92
2022-10-21T06:25:21.807Z,93.03
2022-10-21T06:26:24.355Z,92.81
2022-10-21T06:27:27.238Z,93.13
2022-10-21T06:28:31.694Z,92.92
2022-10-21T06:29:33.304Z,92.76
2022-10-21T06:30:36.476Z,92.87
2022-10-21T06:31:38.037Z,92.75
2022-10-21T06:32:40.528Z,92.82
2022-10-21T06:33:42.335Z,92.75
2022-10-21T06:34:44.863Z,92.73
2022-10-21T06:35:46.995Z,92.64
2022-10-21T06:36:49.691Z,92.62
2022-10-21T06:37:52.220Z,92.53
2022-10-21T06:38:53.978Z,92.45
2022-10-21T06:39:56.832Z,92.53
2022-10-21T06:41:02.089Z,92.69
2022-10-21T06:42:04.701Z,92.70
2022-10-21T06:43:07.611Z,92.35
2022-10-21T06:44:10.063Z,92.54
2022-10-21T06:45:12.703Z,92.57
2022-10-21T06:46:15.436Z,92.53
2022-10-21T06:47:18.113Z,92.41
2022-10-21T06:48:20.646Z,92.41
2022-10-21T06:49:22.192Z,92.36
2022-10-21T06:50:24.796Z,92.44
2022-10-21T06:51:29.187Z,92.37
2022-10-21T06:52:31.127Z,92.35
2022-10-21T06:53:36.559Z,92.28
2022-10-21T06:54:40.640Z,92.08
2022-10-21T06:55:43.214Z,92.12
2022-10-21T06:56:45.950Z,92.16
2022-10-21T06:57:48.521Z,92.07
2022-10-21T06:58:52.804Z,91.81
2022-10-21T06:59:54.333Z,92.00
2022-10-21T07:00:56.840Z,91.92
2022-10-21T07:02:00.909Z,91.98
2022-10-21T07:03:03.740Z,91.89
2022-10-21T07:04:06.997Z,91.85
2022-10-21T07:05:10.355Z,91.88
2022-10-21T07:06:12.305Z,91.61
2022-10-21T07:07:15.353Z,91.61
2022-10-21T07:08:19.820Z,91.73
2022-10-21T07:09:25.302Z,91.55
2022-10-21T07:10:26.867Z,91.60
2022-10-21T07:11:29.797Z,91.43
2022-10-21T07:12:32.522Z,91.57
2022-10-21T07:13:35.376Z,91.42
2022-10-21T07:14:39.227Z,91.44
2022-10-21T07:15:40.756Z,91.64
2022-10-21T07:16:43.510Z,91.89
2022-10-21T07:17:46.570Z,91.26
2022-10-21T07:18:49.137Z,91.38
2022-10-21T07:19:50.687Z,91.31
2022-10-21T07:20:53.203Z,91.41
2022-10-21T07:21:55.865Z,91.51
2022-10-21T07:22:58.495Z,91.22
2022-10-21T07:24:00.716Z,91.14
2022-10-21T07:25:04.873Z,91.17
2022-10-21T07:26:07.527Z,91.02
2022-10-21T07:27:10.021Z,91.15
2022-10-21T07:28:11.640Z,91.13
2022-10-21T07:29:14.257Z,91.04
2022-10-21T07:30:17.615Z,90.82
2022-10-21T07:31:21.849Z,90.86
2022-10-21T07:32:23.412Z,90.95
2022-10-21T07:33:26.045Z,90.86
2022-10-21T07:34:28.692Z,90.79
2022-10-21T07:35:30.253Z,90.80
2022-10-21T07:36:35.154Z,90.93
2022-10-21T07:37:37.063Z,90.77
2022-10-21T07:38:41.164Z,90.64
2022-10-21T07:39:42.734Z,90.72
2022-10-21T07:40:45.663Z,90.71
2022-10-21T07:41:49.273Z,90.63
2022-10-21T07:42:51.779Z,90.59
2022-10-21T07:43:55.066Z,90.55
2022-10-21T07:44:59.362Z,90.51
2022-10-21T07:46:06.101Z,90.50
2022-10-21T07:47:09.617Z,90.58
2022-10-21T07:48:11.152Z,90.50
2022-10-21T07:49:15.034Z,90.62
2022-10-21T07:50:17.942Z,90.67
2022-10-21T07:51:26.884Z,90.43
2022-10-21T07:52:33.705Z,90.40
2022-10-21T07:53:38.661Z,90.61
2022-10-21T07:54:41.199Z,90.50
2022-10-21T07:55:42.731Z,90.48
2022-10-21T07:56:47.480Z,90.42
2022-10-21T07:57:49.057Z,90.48
2022-10-21T07:58:52.442Z,90.57
2022-10-21T07:59:55.029Z,90.44
2022-10-21T08:00:58.473Z,90.56
2022-10-21T08:02:02.450Z,90.54
2022-10-21T08:03:03.944Z,90.65
2022-10-21T08:04:07.404Z,90.53
2022-10-21T08:05:10.294Z,90.56
2022-10-21T08:06:13.690Z,90.59
2022-10-21T08:07:16.250Z,90.59
2022-10-21T08:08:21.596Z,90.71
2022-10-21T08:09:24.085Z,90.63
2022-10-21T08:10:25.613Z,90.62
2022-10-21T08:11:30.613Z,90.68
2022-10-21T08:12:32.169Z,90.61
2022-10-21T08:13:34.879Z,90.68
2022-10-21T08:14:37.492Z,90.68
2022-10-21T08:15:41.928Z,90.69
2022-10-21T08:16:44.413Z,90.72
2022-10-21T08:17:48.285Z,90.74
2022-10-21T08:18:50.018Z,90.75
2022-10-21T08:19:58.620Z,90.80
2022-10-21T08:21:02.661Z,90.82
2022-10-21T08:22:06.337Z,90.90
2022-10-21T08:23:08.087Z,90.99
2022-10-21T08:24:10.725Z,90.96
2022-10-21T08:25:16.576Z,90.92
2022-10-21T08:26:21.230Z,91.08
2022-10-21T08:27:23.689Z,91.00
2022-10-21T08:28:27.159Z,91.02
2022-10-21T08:29:29.662Z,91.23
2022-10-21T08:30:31.810Z,91.20
2022-10-21T08:31:35.980Z,91.23
2022-10-21T08:32:38.779Z,91.25
2022-10-21T08:33:44.059Z,91.25
2022-10-21T08:34:46.660Z,91.31
2022-10-21T08:35:48.221Z,91.39
2022-10-21T08:36:50.957Z,91.75
2022-10-21T08:37:52.555Z,91.56
2022-10-21T08:38:55.595Z,91.58
2022-10-21T08:39:57.192Z,91.37
2022-10-21T08:41:00.823Z,91.72
2022-10-21T08:42:08.073Z,91.70
2022-10-21T08:43:15.695Z,91.71
2022-10-21T08:44:42.790Z,91.79
2022-10-21T08:45:49.302Z,91.81
2022-10-21T08:46:58.377Z,91.83
2022-10-21T08:48:06.534Z,91.88
2022-10-21T08:49:16.340Z,91.89
2022-10-21T08:50:22.680Z,92.00
2022-10-21T08:51:29.568Z,92.02
2022-10-21T08:52:40.864Z,92.08
2022-10-21T08:53:48.666Z,92.15
2022-10-21T08:54:56.079Z,92.25
2022-10-21T08:56:03.261Z,92.33
2022-10-21T08:57:05.155Z,92.30
2022-10-21T08:58:16.233Z,92.11
2022-10-21T08:59:21.756Z,92.27
2022-10-21T09:00:26.884Z,92.34
2022-10-21T09:01:34.444Z,92.33
2022-10-21T09:02:47.451Z,92.37
2022-10-21T09:03:55.938Z,92.44
2022-10-21T09:05:19.742Z,92.63
2022-10-21T09:06:25.713Z,92.73
2022-10-21T09:07:36.231Z,92.65
2022-10-21T09:08:47.374Z,92.61
2022-10-21T09:09:55.677Z,92.56
2022-10-21T09:11:02.382Z,92.50
2022-10-21T09:12:09.869Z,92.71
2022-10-21T09:13:17.528Z,92.78
2022-10-21T09:14:43.419Z,92.67
2022-10-21T09:15:56.571Z,92.66
2022-10-21T09:17:06.139Z,92.88
2022-10-21T09:18:22.415Z,92.67
2022-10-21T09:19:35.571Z,92.87
2022-10-21T09:20:56.040Z,93.02
2022-10-21T09:22:34.318Z,92.88
2022-10-21T09:23:52.896Z,93.03
2022-10-21T09:25:04.848Z,93.08
2022-10-21T09:26:23.384Z,92.85
2022-10-21T09:27:54.806Z,93.11
2022-10-21T09:28:51.657Z,92.80
2022-10-21T09:29:58.766Z,92.82
2022-10-21T09:31:04.864Z,92.96
2022-10-21T09:32:15.638Z,92.79
2022-10-21T09:33:24.086Z,92.84
2022-10-21T09:34:38.968Z,92.71
2022-10-21T09:35:48.043Z,92.87
2022-10-21T09:36:52.297Z,92.82
2022-10-21T09:37:58.467Z,92.79
2022-10-21T09:39:03.182Z,92.83
2022-10-21T09:40:16.070Z,92.72
2022-10-21T09:42:42.707Z,92.88
2022-10-21T09:43:48.671Z,92.81
2022-10-21T09:44:51.543Z,93.00
2022-10-21T09:45:55.157Z,92.96
2022-10-21T09:46:56.709Z,92.92
2022-10-21T09:48:01.615Z,92.91
2022-10-21T09:50:27.634Z,93.00
2022-10-21T09:51:34.944Z,93.07
2022-10-21T09:52:37.952Z,92.91
2022-10-21T09:53:52.928Z,92.98
2022-10-21T09:54:57.696Z,92.96
2022-10-21T09:56:03.714Z,92.94
2022-10-21T09:57:16.713Z,92.98
2022-10-21T09:58:26.782Z,92.97
2022-10-21T09:59:32.886Z,93.00
2022-10-21T10:00:45.593Z,93.10
2022-10-21T10:01:49.910Z,93.01
2022-10-21T10:02:51.673Z,93.01
2022-10-21T10:03:54.920Z,92.95
2022-10-21T10:04:56.832Z,93.06
2022-10-21T10:05:59.846Z,93.12
2022-10-21T10:07:19.371Z,92.94
2022-10-21T10:08:29.410Z,93.09
2022-10-21T10:09:33.896Z,92.97
2022-10-21T10:10:35.408Z,93.06
2022-10-21T10:11:50.206Z,92.94
2022-10-21T10:12:56.885Z,93.01
2022-10-21T10:14:17.761Z,93.18
2022-10-21T10:15:29.316Z,93.14
2022-10-21T10:16:34.113Z,93.23
2022-10-21T10:17:39.644Z,93.25
2022-10-21T10:18:42.110Z,93.30
2022-10-21T10:19:44.723Z,93.06
2022-10-21T10:20:46.239Z,93.36
2022-10-21T10:22:10.736Z,93.31
2022-10-21T10:23:19.921Z,93.38
2022-10-21T10:24:22.845Z,93.49
2022-10-21T10:25:28.442Z,93.44
2022-10-21T10:26:34.165Z,93.45
2022-10-21T10:27:36.503Z,93.27
2022-10-21T10:28:39.234Z,93.62
2022-10-21T10:29:42.517Z,93.60
2022-10-21T10:30:49.452Z,93.82
2022-10-21T10:31:55.406Z,93.62
2022-10-21T10:32:58.243Z,93.71
2022-10-21T10:34:04.546Z,93.65
2022-10-21T10:35:15.279Z,93.78
2022-10-21T10:36:28.654Z,93.63
2022-10-21T10:37:36.166Z,93.82
2022-10-21T10:38:42.078Z,93.86
2022-10-21T10:39:49.210Z,93.87
2022-10-21T10:40:54.207Z,94.10
2022-10-21T10:41:59.852Z,94.01
2022-10-21T10:43:07.092Z,94.02
2022-10-21T10:44:12.451Z,94.07
2022-10-21T10:45:20.258Z,94.05
2022-10-21T10:46:25.606Z,94.13
2022-10-21T10:47:31.597Z,94.18
2022-10-21T10:48:37.631Z,94.17
2022-10-21T10:49:43.720Z,94.18
2022-10-21T10:50:47.220Z,94.14
2022-10-21T10:52:04.224Z,94.24
2022-10-21T10:53:24.664Z,94.23
2022-10-21T10:54:29.303Z,94.24
2022-10-21T10:55:33.909Z,94.26
2022-10-21T10:56:42.195Z,94.27
2022-10-21T10:57:58.986Z,94.35
2022-10-21T10:59:16.951Z,94.32
2022-10-21T11:00:21.079Z,94.25
2022-10-21T11:01:27.888Z,94.26
2022-10-21T11:02:38.977Z,94.33
2022-10-21T11:03:45.815Z,94.44
2022-10-21T11:05:07.915Z,94.33
2022-10-21T11:06:17.371Z,94.25
2022-10-21T11:07:26.644Z,94.32
2022-10-21T11:08:35.197Z,94.36
2022-10-21T11:09:38.363Z,94.37
2022-10-21T11:10:44.600Z,94.25
2022-10-21T11:11:49.425Z,94.30
2022-10-21T11:12:50.965Z,94.19
2022-10-21T11:13:54.444Z,94.11
2022-10-21T11:14:58.378Z,94.10
2022-10-21T11:16:12.389Z,93.96
2022-10-21T11:17:19.994Z,94.05
2022-10-21T11:18:29.108Z,93.78
2022-10-21T11:19:41.189Z,93.74
2022-10-21T11:20:54.079Z,93.66
2022-10-21T11:22:06.259Z,93.63
2022-10-21T11:23:29.035Z,93.44
2022-10-21T11:24:55.239Z,93.26
2022-10-21T11:26:03.981Z,93.14
2022-10-21T11:27:13.486Z,93.29
2022-10-21T11:28:27.433Z,93.29
2022-10-21T11:29:40.787Z,93.08
2022-10-21T11:30:58.256Z,92.66
2022-10-21T11:32:12.649Z,92.74
2022-10-21T11:33:26.357Z,92.68
2022-10-21T11:34:40.317Z,92.50
2022-10-21T11:35:54.267Z,92.75
2022-10-21T11:37:06.656Z,92.46
2022-10-21T11:38:30.482Z,92.23
2022-10-21T11:39:43.030Z,92.45
2022-10-21T11:40:49.865Z,92.07
2022-10-21T11:42:01.138Z,91.92
2022-10-21T11:43:16.390Z,92.11
2022-10-21T11:44:29.630Z,91.87
2022-10-21T11:45:39.607Z,91.88
2022-10-21T11:46:53.453Z,91.69
2022-10-21T11:48:02.459Z,91.81
2022-10-21T11:49:18.783Z,91.41
2022-10-21T11:50:32.381Z,91.35
2022-10-21T11:51:43.261Z,91.31
2022-10-21T11:53:11.546Z,91.08
2022-10-21T11:54:37.136Z,91.17
2022-10-21T11:55:50.456Z,91.16
2022-10-21T11:56:59.375Z,90.96
2022-10-21T11:58:13.340Z,90.89
2022-10-21T11:59:27.136Z,90.99
2022-10-21T12:00:38.052Z,90.76
2022-10-21T12:01:48.599Z,90.56
2022-10-21T12:03:14.409Z,90.10
2022-10-21T12:04:26.132Z,90.29
2022-10-21T12:05:32.605Z,90.12
2022-10-21T12:06:38.748Z,89.82
2022-10-21T12:07:58.446Z,89.49
2022-10-21T12:09:03.702Z,89.56
2022-10-21T12:10:13.467Z,89.34
2022-10-21T12:11:21.842Z,89.51
2022-10-21T12:12:30.055Z,89.44
2022-10-21T12:13:36.841Z,89.18
2022-10-21T12:14:42.341Z,89.04
2022-10-21T12:15:49.375Z,88.48
2022-10-21T12:16:53.715Z,88.38
2022-10-21T12:17:57.661Z,88.10
2022-10-21T12:19:05.478Z,87.99
2022-10-21T12:20:18.071Z,87.88
2022-10-21T12:21:26.882Z,88.03
2022-10-21T12:22:33.047Z,87.71
2022-10-21T12:23:34.799Z,87.28
2022-10-21T12:24:48.388Z,87.22
2022-10-21T12:26:04.724Z,87.18
2022-10-21T12:27:18.371Z,87.04
2022-10-21T12:28:29.119Z,87.05
2022-10-21T12:29:44.447Z,86.99
2022-10-21T12:30:54.847Z,87.02
2022-10-21T12:32:06.180Z,86.59
2022-10-21T12:33:17.050Z,86.82
2022-10-21T12:34:19.773Z,86.61
2022-10-21T12:35:26.996Z,86.22
2022-10-21T12:36:44.805Z,86.48
2022-10-21T12:38:06.972Z,86.78
2022-10-21T12:39:16.632Z,86.38
2022-10-21T12:40:35.830Z,86.61
2022-10-21T12:41:39.298Z,86.40
2022-10-21T12:42:46.595Z,86.11
2022-10-21T12:43:54.673Z,86.29
2022-10-21T12:44:56.281Z,86.19
2022-10-21T12:46:05.329Z,85.75
2022-10-21T12:47:24.842Z,85.87
2022-10-21T12:48:32.545Z,86.02
2022-10-21T12:49:36.336Z,85.86
2022-10-21T12:50:38.212Z,85.73
2022-10-21T12:51:41.084Z,85.58
2022-10-21T12:52:45.876Z,85.46
2022-10-21T12:55:02.084Z,85.02
2022-10-21T12:56:05.326Z,84.86
2022-10-21T12:57:10.938Z,84.14
2022-10-21T12:58:25.448Z,83.98
2022-10-21T12:59:31.761Z,84.08
2022-10-21T13:00:54.859Z,84.04
2022-10-21T13:02:27.083Z,83.84
2022-10-21T13:03:52.008Z,84.11
2022-10-21T13:04:57.286Z,83.71
2022-10-21T13:06:02.724Z,83.43
2022-10-21T13:07:06.377Z,83.40
2022-10-21T13:08:27.105Z,83.60
2022-10-21T13:09:34.870Z,83.48
2022-10-21T13:10:37.360Z,83.32
2022-10-21T13:11:40.870Z,82.98
2022-10-21T13:12:43.486Z,82.81
2022-10-21T13:13:48.396Z,82.59
2022-10-21T13:14:52.500Z,82.69
2022-10-21T13:15:55.430Z,82.95
2022-10-21T13:17:17.218Z,83.07
2022-10-21T13:19:04.868Z,82.72
2022-10-21T13:20:53.060Z,83.00
2022-10-21T13:22:03.293Z,82.98
2022-10-21T13:23:31.679Z,82.61
2022-10-21T13:24:35.093Z,82.92
2022-10-21T13:25:36.887Z,82.59
2022-10-21T13:26:41.629Z,82.70
2022-10-21T13:27:46.160Z,82.39
2022-10-21T13:29:21.823Z,82.65
2022-10-21T13:30:29.123Z,82.79
2022-10-21T13:31:32.128Z,82.56
2022-10-21T13:32:36.111Z,82.91
2022-10-21T13:33:38.748Z,83.24
2022-10-21T13:34:43.547Z,83.04
2022-10-21T13:35:48.699Z,82.98
2022-10-21T13:36:52.774Z,82.79
2022-10-21T13:37:58.819Z,83.37
2022-10-21T13:39:04.961Z,83.09
2022-10-21T13:40:15.411Z,83.44
2022-10-21T13:41:22.522Z,83.45
2022-10-21T13:42:27.469Z,83.74
2022-10-21T13:43:39.179Z,83.66
2022-10-21T13:44:50.207Z,83.74
2022-10-21T13:45:58.312Z,84.21
2022-10-21T13:47:18.688Z,84.05
2022-10-21T13:48:25.178Z,84.15
2022-10-21T13:49:28.764Z,83.93
2022-10-21T13:50:33.909Z,84.23
2022-10-21T13:51:46.541Z,84.01
2022-10-21T13:52:48.083Z,84.21
2022-10-21T13:53:54.675Z,84.10
2022-10-21T13:54:57.012Z,84.50
2022-10-21T13:56:02.848Z,84.09
2022-10-21T13:57:07.403Z,84.44
2022-10-21T13:58:16.333Z,84.46
2022-10-21T13:59:24.693Z,84.44
2022-10-21T14:00:30.205Z,84.50
2022-10-21T14:01:46.299Z,84.60
2022-10-21T14:02:48.672Z,84.57
2022-10-21T14:03:53.107Z,84.57
2022-10-21T14:04:54.799Z,84.59
2022-10-21T14:06:01.246Z,84.52
2022-10-21T14:07:07.799Z,84.49
2022-10-21T14:08:21.101Z,84.04
2022-10-21T14:09:28.596Z,84.39
2022-10-21T14:10:30.931Z,84.14
2022-10-21T14:11:37.593Z,83.98
2022-10-21T14:12:44.836Z,83.60
2022-10-21T14:13:49.102Z,83.82
2022-10-21T14:14:52.756Z,83.50
2022-10-21T14:15:57.269Z,83.17
2022-10-21T14:17:02.685Z,83.54